Time;durP1;ratioP1;P1;durP2;ratioP2;P2;SDS_P1;SDS_P2;PMS_P1;PMS_P2;Temp;Humidity;BMP_temperature;BMP_pressure;BME280_temperature;BME280_humidity;BME280_pressure;Samples;Min_cycle;Max_cycle;Signal;HPM_P1;HPM_P2
2023/10/04 00:00:15;;;;;;;3.27;2.20;;;;;;;;;;5120230;28;20233;-68
2023/10/04 00:02:46;;;;;;;4.77;2.30;;;;;;;;;;5120672;28;20283;-70
2023/10/04 00:05:16;;;;;;;4.27;1.97;;;;;;;;;;5120577;28;20228;-70
2023/10/04 00:07:44;;;;;;;4.03;1.97;;;;;;;;;;5120350;28;20289;-70
2023/10/04 00:10:12;;;;;;;3.50;1.97;;;;;;;;;;5120037;28;20692;-70
2023/10/04 00:12:42;;;;;;;3.63;2.03;;;;;;;;;;5120301;28;20286;-70
2023/10/04 00:15:12;;;;;;;2.00;1.70;;;;;;;;;;5120258;28;20258;-70
2023/10/04 00:17:41;;;;;;;4.27;1.60;;;;;;;;;;5120376;28;20205;-70
2023/10/04 00:20:13;;;;;;;2.43;1.60;;;;;;;;;;5120301;28;20229;-68
2023/10/04 00:22:42;;;;;;;3.30;1.80;;;;;;;;;;5119886;28;20225;-69
2023/10/04 00:25:11;;;;;;;4.47;2.10;;;;;;;;;;5120179;28;20209;-71
2023/10/04 00:27:41;;;;;;;3.77;1.83;;;;;;;;;;5119848;28;20235;-69
2023/10/04 00:30:16;;;;;;;3.13;1.47;;;;;;;;;;5120126;28;20259;-71
2023/10/04 00:32:46;;;;;;;3.53;1.97;;;;;;;;;;5120048;28;20200;-70
2023/10/04 00:35:17;;;;;;;4.87;1.93;;;;;;;;;;5119760;28;20247;-70
2023/10/04 00:37:48;;;;;;;4.17;1.70;;;;;;;;;;5120042;28;20209;-69
2023/10/04 00:40:21;;;;;;;2.30;1.77;;;;;;;;;;5119647;28;20256;-69
2023/10/04 00:42:50;;;;;;;2.17;1.67;;;;;;;;;;5119387;28;20730;-71
2023/10/04 00:45:20;;;;;;;3.83;2.10;;;;;;;;;;5119626;28;20212;-70
2023/10/04 00:47:50;;;;;;;3.23;1.93;;;;;;;;;;5116940;28;20212;-71
2023/10/04 00:50:25;;;;;;;3.73;2.00;;;;;;;;;;5111131;28;20717;-71
2023/10/04 00:52:57;;;;;;;3.20;1.80;;;;;;;;;;5119507;28;20200;-71
2023/10/04 00:55:25;;;;;;;2.90;1.90;;;;;;;;;;5119679;28;20287;-69
2023/10/04 00:57:55;;;;;;;3.40;2.07;;;;;;;;;;5119177;28;20236;-71
2023/10/04 01:00:23;;;;;;;5.00;1.73;;;;;;;;;;5119200;28;20235;-70
2023/10/04 01:02:52;;;;;;;4.07;2.17;;;;;;;;;;5107834;28;20218;-70
2023/10/04 01:05:27;;;;;;;2.93;1.93;;;;;;;;;;5119487;28;20205;-69
2023/10/04 01:07:56;;;;;;;2.77;1.90;;;;;;;;;;5119115;28;20559;-69
2023/10/04 01:10:30;;;;;;;3.87;1.93;;;;;;;;;;5119269;28;20267;-69
2023/10/04 01:12:58;;;;;;;3.40;1.70;;;;;;;;;;5119119;28;20265;-70
2023/10/04 01:15:32;;;;;;;2.47;1.90;;;;;;;;;;5119371;28;20236;-69
2023/10/04 01:18:01;;;;;;;2.50;1.53;;;;;;;;;;5119225;27;20204;-68
2023/10/04 01:20:33;;;;;;;4.00;2.00;;;;;;;;;;5118929;28;20232;-69
2023/10/04 01:23:05;;;;;;;4.20;2.13;;;;;;;;;;5118757;27;20221;-69
2023/10/04 01:25:34;;;;;;;2.97;1.77;;;;;;;;;;5119053;28;20209;-69
2023/10/04 01:28:06;;;;;;;3.07;1.90;;;;;;;;;;5118554;28;20638;-70
2023/10/04 01:30:35;;;;;;;3.40;1.90;;;;;;;;;;5118826;28;20312;-71
2023/10/04 01:33:04;;;;;;;3.07;2.07;;;;;;;;;;5118921;28;20297;-71
2023/10/04 01:35:33;;;;;;;2.80;1.80;;;;;;;;;;5118663;28;20552;-71
2023/10/04 01:38:06;;;;;;;3.13;1.87;;;;;;;;;;5118802;28;20278;-71
2023/10/04 01:40:35;;;;;;;4.63;1.93;;;;;;;;;;5118711;28;20216;-71
2023/10/04 01:43:10;;;;;;;5.63;1.93;;;;;;;;;;5118257;28;20315;-71
2023/10/04 01:45:38;;;;;;;5.17;2.10;;;;;;;;;;5105387;28;20208;-71
2023/10/04 01:48:06;;;;;;;2.67;1.77;;;;;;;;;;5118645;28;20211;-71
2023/10/04 01:50:34;;;;;;;3.63;1.93;;;;;;;;;;5118246;28;20228;-71
2023/10/04 01:53:05;;;;;;;3.83;1.73;;;;;;;;;;5118232;28;20315;-70
2023/10/04 01:55:33;;;;;;;5.30;2.17;;;;;;;;;;5118490;28;20328;-70
2023/10/04 01:58:01;;;;;;;3.23;1.73;;;;;;;;;;5117377;28;20292;-70
2023/10/04 02:00:29;;;;;;;2.23;1.73;;;;;;;;;;5118080;28;20738;-69
2023/10/04 02:02:57;;;;;;;3.20;1.53;;;;;;;;;;5118363;28;20260;-70
2023/10/04 02:05:31;;;;;;;2.30;1.77;;;;;;;;;;5118503;28;20688;-71
2023/10/04 02:07:59;;;;;;;5.77;2.30;;;;;;;;;;5118280;28;20232;-71
2023/10/04 02:10:28;;;;;;;3.13;1.60;;;;;;;;;;5118127;28;20324;-71
2023/10/04 02:12:56;;;;;;;3.73;1.90;;;;;;;;;;5118162;28;20233;-70
2023/10/04 02:15:24;;;;;;;2.17;1.60;;;;;;;;;;5118397;28;20212;-71
2023/10/04 02:17:53;;;;;;;4.63;1.93;;;;;;;;;;5118232;28;20201;-70
2023/10/04 02:20:25;;;;;;;3.67;2.00;;;;;;;;;;5118180;28;20278;-68
2023/10/04 02:22:54;;;;;;;5.47;3.03;;;;;;;;;;5117334;28;20263;-68
2023/10/04 02:25:22;;;;;;;2.97;1.87;;;;;;;;;;5113044;28;20197;-70
2023/10/04 02:27:52;;;;;;;2.17;1.73;;;;;;;;;;5111307;28;20197;-70
2023/10/04 02:30:22;;;;;;;2.23;1.60;;;;;;;;;;5107907;28;20651;-69
2023/10/04 02:32:51;;;;;;;4.03;1.83;;;;;;;;;;5115483;28;20193;-69
2023/10/04 02:35:25;;;;;;;3.30;2.07;;;;;;;;;;5109879;28;20201;-70
2023/10/04 02:37:54;;;;;;;3.63;1.90;;;;;;;;;;5112858;28;20581;-70
2023/10/04 02:40:23;;;;;;;4.00;2.10;;;;;;;;;;5117644;28;20216;-70
2023/10/04 02:42:58;;;;;;;3.83;1.97;;;;;;;;;;5117934;28;20216;-70
2023/10/04 02:45:30;;;;;;;6.83;2.07;;;;;;;;;;5117987;28;20219;-70
2023/10/04 02:47:58;;;;;;;3.40;1.90;;;;;;;;;;5118072;28;20264;-70
2023/10/04 02:50:28;;;;;;;2.73;1.73;;;;;;;;;;5117656;28;20242;-70
2023/10/04 02:52:56;;;;;;;4.83;2.10;;;;;;;;;;5117859;28;20323;-70
2023/10/04 02:55:24;;;;;;;5.03;2.13;;;;;;;;;;5117928;28;20355;-70
2023/10/04 02:57:56;;;;;;;4.37;1.87;;;;;;;;;;5118086;28;20212;-70
2023/10/04 03:00:24;;;;;;;3.20;2.47;;;;;;;;;;5117639;28;20316;-69
2023/10/04 03:02:53;;;;;;;2.10;1.70;;;;;;;;;;5111466;28;20202;-69
2023/10/04 03:05:21;;;;;;;4.60;2.30;;;;;;;;;;5113925;28;20250;-69
2023/10/04 03:07:50;;;;;;;3.30;1.70;;;;;;;;;;5117880;28;20209;-68
2023/10/04 03:10:24;;;;;;;3.00;1.70;;;;;;;;;;5116503;28;20228;-70
2023/10/04 03:12:53;;;;;;;1.83;1.60;;;;;;;;;;5112891;28;20215;-70
2023/10/04 03:15:23;;;;;;;2.83;1.70;;;;;;;;;;5121029;28;20205;-70
2023/10/04 03:17:54;;;;;;;3.80;2.00;;;;;;;;;;5121313;27;20251;-70
2023/10/04 03:20:23;;;;;;;5.63;1.93;;;;;;;;;;5121334;28;20255;-70
2023/10/04 03:22:55;;;;;;;6.37;1.50;;;;;;;;;;5120996;28;20243;-70
2023/10/04 03:25:24;;;;;;;3.37;1.73;;;;;;;;;;5121387;28;20288;-70
2023/10/04 03:27:53;;;;;;;3.43;1.90;;;;;;;;;;5121191;28;20264;-70
2023/10/04 03:30:23;;;;;;;3.60;2.00;;;;;;;;;;5121279;28;20227;-70
2023/10/04 03:32:52;;;;;;;2.00;1.37;;;;;;;;;;5121195;28;20659;-70
2023/10/04 03:35:21;;;;;;;2.50;2.00;;;;;;;;;;5121293;28;20205;-70
2023/10/04 03:37:54;;;;;;;4.33;1.90;;;;;;;;;;5121154;28;20211;-70
2023/10/04 03:40:23;;;;;;;4.30;2.13;;;;;;;;;;5120771;28;20262;-70
2023/10/04 03:42:50;;;;;;;2.93;1.90;;;;;;;;;;5120863;28;20211;-70
2023/10/04 03:45:20;;;;;;;6.33;2.43;;;;;;;;;;5120892;28;20311;-69
2023/10/04 03:47:50;;;;;;;3.00;2.00;;;;;;;;;;5120678;28;20212;-69
2023/10/04 03:50:19;;;;;;;5.33;2.00;;;;;;;;;;5121086;28;20221;-70
2023/10/04 03:52:48;;;;;;;4.87;1.93;;;;;;;;;;5120683;28;20201;-70
2023/10/04 03:55:17;;;;;;;4.50;2.43;;;;;;;;;;5120729;28;20244;-69
2023/10/04 03:57:45;;;;;;;4.90;1.60;;;;;;;;;;5120698;28;20229;-70
2023/10/04 04:00:17;;;;;;;3.47;2.30;;;;;;;;;;5120535;28;20309;-70
2023/10/04 04:02:46;;;;;;;5.23;2.57;;;;;;;;;;5120914;28;20215;-70
2023/10/04 04:05:16;;;;;;;3.97;2.17;;;;;;;;;;5120684;28;20259;-70
2023/10/04 04:07:44;;;;;;;3.97;2.10;;;;;;;;;;5120742;27;20215;-70
2023/10/04 04:10:14;;;;;;;5.40;2.00;;;;;;;;;;5120318;28;20252;-69
2023/10/04 04:12:42;;;;;;;5.37;2.13;;;;;;;;;;5120279;28;20201;-69
2023/10/04 04:15:12;;;;;;;5.90;1.83;;;;;;;;;;5120401;28;20201;-69
2023/10/04 04:17:44;;;;;;;6.23;2.17;;;;;;;;;;5120143;28;20219;-69
2023/10/04 04:20:14;;;;;;;3.10;1.90;;;;;;;;;;5120062;28;20225;-69
2023/10/04 04:22:47;;;;;;;5.20;2.53;;;;;;;;;;5120205;28;20241;-69
2023/10/04 04:25:19;;;;;;;7.47;2.67;;;;;;;;;;5119823;28;20311;-69
2023/10/04 04:27:49;;;;;;;2.90;1.80;;;;;;;;;;5119956;28;20208;-69
2023/10/04 04:30:20;;;;;;;3.73;1.97;;;;;;;;;;5120155;28;20315;-69
2023/10/04 04:32:52;;;;;;;2.23;1.90;;;;;;;;;;5120141;28;20209;-69
2023/10/04 04:35:34;;;;;;;3.63;1.87;;;;;;;;;;5120021;28;20200;-68
2023/10/04 04:38:13;;;;;;;4.67;2.00;;;;;;;;;;5119546;28;20572;-70
2023/10/04 04:40:44;;;;;;;6.47;2.17;;;;;;;;;;5121245;27;20276;-70
2023/10/04 04:43:35;;;;;;;3.73;2.30;;;;;;;;;;5120134;28;20200;-70
2023/10/04 04:46:07;;;;;;;5.50;2.23;;;;;;;;;;5119673;28;20193;-70
2023/10/04 04:48:37;;;;;;;4.77;2.20;;;;;;;;;;5119932;28;20208;-70
2023/10/04 04:51:12;;;;;;;3.73;2.37;;;;;;;;;;5119784;28;20236;-70
2023/10/04 04:53:42;;;;;;;4.10;2.33;;;;;;;;;;5119349;28;20232;-70
2023/10/04 04:56:12;;;;;;;4.37;2.30;;;;;;;;;;5119788;27;20204;-70
2023/10/04 04:58:41;;;;;;;5.40;2.70;;;;;;;;;;5119328;28;20220;-70
2023/10/04 05:01:11;;;;;;;4.53;2.67;;;;;;;;;;5119403;28;20224;-70
2023/10/04 05:03:42;;;;;;;6.33;2.20;;;;;;;;;;5115836;28;20204;-70
2023/10/04 05:06:14;;;;;;;3.70;1.93;;;;;;;;;;5112509;28;20228;-71
2023/10/04 05:08:44;;;;;;;4.10;2.07;;;;;;;;;;5119069;28;20309;-71
2023/10/04 05:11:12;;;;;;;2.97;2.10;;;;;;;;;;5110389;28;20217;-68
2023/10/04 05:13:40;;;;;;;4.80;2.43;;;;;;;;;;5112663;28;20207;-69
2023/10/04 05:16:08;;;;;;;6.20;2.13;;;;;;;;;;5118845;28;20591;-69
2023/10/04 05:18:37;;;;;;;4.07;2.00;;;;;;;;;;5112488;28;20367;-68
2023/10/04 05:21:05;;;;;;;5.40;2.20;;;;;;;;;;5118485;27;20307;-69
2023/10/04 05:23:34;;;;;;;3.07;2.10;;;;;;;;;;5110120;28;20201;-69
2023/10/04 05:26:04;;;;;;;4.70;1.70;;;;;;;;;;5115449;28;20784;-69
2023/10/04 05:28:33;;;;;;;6.83;2.73;;;;;;;;;;5118386;28;20223;-69
2023/10/04 05:31:01;;;;;;;3.60;2.00;;;;;;;;;;5107668;28;20227;-70
2023/10/04 05:33:29;;;;;;;5.87;2.73;;;;;;;;;;5111855;28;20233;-70
2023/10/04 05:36:00;;;;;;;4.23;2.07;;;;;;;;;;5118594;28;20562;-70
2023/10/04 05:38:28;;;;;;;5.60;2.23;;;;;;;;;;5118767;28;20292;-70
2023/10/04 05:40:57;;;;;;;5.67;2.67;;;;;;;;;;5118413;28;20580;-70
2023/10/04 05:43:28;;;;;;;5.67;2.50;;;;;;;;;;5118242;28;20204;-70
2023/10/04 05:45:57;;;;;;;8.70;2.80;;;;;;;;;;5118245;28;20249;-70
2023/10/04 05:48:26;;;;;;;5.87;2.33;;;;;;;;;;5118618;28;20205;-69
2023/10/04 05:50:57;;;;;;;4.13;2.60;;;;;;;;;;5118605;28;20703;-70
2023/10/04 05:53:26;;;;;;;7.60;2.90;;;;;;;;;;5118125;28;20642;-69
2023/10/04 05:55:54;;;;;;;3.67;2.30;;;;;;;;;;5118620;28;20291;-69
2023/10/04 05:58:22;;;;;;;3.80;2.33;;;;;;;;;;5118204;28;20205;-70
2023/10/04 06:00:52;;;;;;;4.83;2.63;;;;;;;;;;5118068;28;20232;-70
2023/10/04 06:03:22;;;;;;;4.43;2.40;;;;;;;;;;5118544;28;20204;-70
2023/10/04 06:05:51;;;;;;;3.50;2.57;;;;;;;;;;5118470;28;20228;-71
2023/10/04 06:08:21;;;;;;;4.70;2.10;;;;;;;;;;5114745;28;20258;-68
2023/10/04 06:10:50;;;;;;;3.60;2.50;;;;;;;;;;5118133;28;20228;-69
2023/10/04 06:13:22;;;;;;;3.87;2.60;;;;;;;;;;5118058;28;20204;-69
2023/10/04 06:15:54;;;;;;;5.03;2.77;;;;;;;;;;5118522;28;20213;-69
2023/10/04 06:18:28;;;;;;;3.90;2.33;;;;;;;;;;5118355;28;20201;-69
2023/10/04 06:20:58;;;;;;;5.60;2.77;;;;;;;;;;5118387;28;20226;-69
2023/10/04 06:23:26;;;;;;;6.90;2.90;;;;;;;;;;5118138;28;20229;-69
2023/10/04 06:25:55;;;;;;;4.57;2.77;;;;;;;;;;5118402;28;20231;-69
2023/10/04 06:28:23;;;;;;;5.83;2.90;;;;;;;;;;5118049;28;20230;-69
2023/10/04 06:30:53;;;;;;;9.03;2.77;;;;;;;;;;5117800;28;20231;-69
2023/10/04 06:33:21;;;;;;;8.30;3.77;;;;;;;;;;5113238;28;20204;-69
2023/10/04 06:35:49;;;;;;;4.03;2.90;;;;;;;;;;5117915;28;20269;-70
2023/10/04 06:38:17;;;;;;;5.30;2.57;;;;;;;;;;5118014;28;20240;-70
2023/10/04 06:40:45;;;;;;;8.07;2.77;;;;;;;;;;5117718;28;20220;-70
2023/10/04 06:43:14;;;;;;;5.03;2.50;;;;;;;;;;5117936;28;20211;-70
2023/10/04 06:45:42;;;;;;;5.60;2.63;;;;;;;;;;5122176;28;20224;-69
2023/10/04 06:48:12;;;;;;;6.43;2.50;;;;;;;;;;5121954;28;20205;-69
2023/10/04 06:50:40;;;;;;;5.37;2.53;;;;;;;;;;5118461;27;20274;-70
2023/10/04 06:53:10;;;;;;;9.17;3.20;;;;;;;;;;5126129;27;20229;-70
2023/10/04 06:55:38;;;;;;;5.37;2.80;;;;;;;;;;5121261;28;20203;-72
2023/10/04 06:58:10;;;;;;;5.70;2.93;;;;;;;;;;5121215;28;20691;-73
2023/10/04 07:00:40;;;;;;;5.87;3.03;;;;;;;;;;5121569;28;20680;-72
2023/10/04 07:03:10;;;;;;;6.43;2.50;;;;;;;;;;5121628;28;20200;-72
2023/10/04 07:05:40;;;;;;;3.27;2.10;;;;;;;;;;5115152;28;20672;-72
2023/10/04 07:08:12;;;;;;;6.93;2.60;;;;;;;;;;5113998;28;20333;-72
2023/10/04 07:10:41;;;;;;;5.17;2.37;;;;;;;;;;5121806;28;20224;-72
2023/10/04 07:13:09;;;;;;;5.27;2.43;;;;;;;;;;5121220;28;20208;-72
2023/10/04 07:15:39;;;;;;;4.57;2.47;;;;;;;;;;5121660;28;20204;-72
2023/10/04 07:18:09;;;;;;;6.50;2.50;;;;;;;;;;5121409;28;20208;-72
2023/10/04 07:20:40;;;;;;;3.50;2.60;;;;;;;;;;5121420;27;20221;-71
2023/10/04 07:23:10;;;;;;;3.43;2.37;;;;;;;;;;5122309;27;20210;-70
2023/10/04 07:25:41;;;;;;;6.20;3.10;;;;;;;;;;5121220;28;20228;-71
2023/10/04 07:28:11;;;;;;;3.13;2.27;;;;;;;;;;5120832;28;20608;-71
2023/10/04 07:30:40;;;;;;;4.17;2.30;;;;;;;;;;5121087;28;20232;-70
2023/10/04 07:33:08;;;;;;;5.87;2.43;;;;;;;;;;5116746;28;20202;-71
2023/10/04 07:35:37;;;;;;;5.40;2.33;;;;;;;;;;5120439;28;20222;-73
2023/10/04 07:38:06;;;;;;;4.63;1.90;;;;;;;;;;5120731;28;20204;-73
2023/10/04 07:40:35;;;;;;;4.33;2.43;;;;;;;;;;5121020;28;20311;-74
2023/10/04 07:43:03;;;;;;;6.87;2.20;;;;;;;;;;5112196;28;20209;-73
2023/10/04 07:45:32;;;;;;;7.47;2.30;;;;;;;;;;5114093;28;20198;-73
2023/10/04 07:48:01;;;;;;;2.83;2.03;;;;;;;;;;5121060;28;20212;-74
2023/10/04 07:50:29;;;;;;;5.53;2.43;;;;;;;;;;5120173;28;20664;-74
2023/10/04 07:52:58;;;;;;;3.03;2.20;;;;;;;;;;5120382;28;20237;-71
2023/10/04 07:55:29;;;;;;;6.20;2.30;;;;;;;;;;5119900;28;20215;-74
2023/10/04 07:57:58;;;;;;;3.97;2.20;;;;;;;;;;5119784;28;20628;-74
2023/10/04 08:00:27;;;;;;;7.50;2.40;;;;;;;;;;5120353;28;20221;-71
2023/10/04 08:02:55;;;;;;;4.07;2.30;;;;;;;;;;5120368;28;20204;-72
2023/10/04 08:05:25;;;;;;;4.73;2.27;;;;;;;;;;5120345;28;20204;-72
2023/10/04 08:07:54;;;;;;;4.13;2.10;;;;;;;;;;5120562;28;20212;-71
2023/10/04 08:10:23;;;;;;;5.77;2.27;;;;;;;;;;5120398;28;20225;-70
2023/10/04 08:12:54;;;;;;;5.50;1.83;;;;;;;;;;5120164;27;20258;-70
2023/10/04 08:15:25;;;;;;;7.63;2.23;;;;;;;;;;5120046;28;20200;-70
2023/10/04 08:17:54;;;;;;;4.17;2.23;;;;;;;;;;5120031;28;20205;-70
2023/10/04 08:20:22;;;;;;;6.57;2.30;;;;;;;;;;5120127;27;20231;-71
2023/10/04 08:22:50;;;;;;;4.73;1.87;;;;;;;;;;5119933;28;20258;-72
2023/10/04 08:25:20;;;;;;;6.53;2.10;;;;;;;;;;5119650;28;20293;-71
2023/10/04 08:27:49;;;;;;;3.57;1.60;;;;;;;;;;5119629;28;20268;-71
2023/10/04 08:30:18;;;;;;;5.80;2.20;;;;;;;;;;5120107;28;20238;-71
2023/10/04 08:32:47;;;;;;;5.23;2.27;;;;;;;;;;5119813;28;20291;-71
2023/10/04 08:35:24;;;;;;;3.90;1.87;;;;;;;;;;5119372;27;20558;-70
2023/10/04 08:37:54;;;;;;;5.07;2.27;;;;;;;;;;5119527;28;20694;-71
2023/10/04 08:40:22;;;;;;;8.27;2.10;;;;;;;;;;5119773;28;20299;-73
2023/10/04 08:42:51;;;;;;;3.87;2.30;;;;;;;;;;5119291;28;20317;-71
2023/10/04 08:45:21;;;;;;;6.97;2.43;;;;;;;;;;5113351;28;20292;-68
2023/10/04 08:47:51;;;;;;;2.47;1.77;;;;;;;;;;5117571;28;20237;-68
2023/10/04 08:50:27;;;;;;;5.93;1.80;;;;;;;;;;5116599;28;20221;-68
2023/10/04 08:53:03;;;;;;;4.80;2.40;;;;;;;;;;5119327;28;20200;-68
2023/10/04 08:55:34;;;;;;;5.53;1.90;;;;;;;;;;5119414;27;20206;-68
2023/10/04 08:58:02;;;;;;;5.97;2.00;;;;;;;;;;5119039;28;20197;-69
2023/10/04 09:00:32;;;;;;;2.30;1.70;;;;;;;;;;5118979;28;20228;-69
2023/10/04 09:03:01;;;;;;;6.53;2.10;;;;;;;;;;5119220;28;20208;-67
2023/10/04 09:05:29;;;;;;;4.33;1.90;;;;;;;;;;5119211;28;20200;-67
2023/10/04 09:07:57;;;;;;;8.70;2.47;;;;;;;;;;5107808;28;20715;-68
2023/10/04 09:10:25;;;;;;;3.93;1.87;;;;;;;;;;5110266;28;20756;-68
2023/10/04 09:12:53;;;;;;;5.00;2.10;;;;;;;;;;5118479;28;20269;-67
2023/10/04 09:15:26;;;;;;;6.43;2.13;;;;;;;;;;5118727;28;20246;-68
2023/10/04 09:17:57;;;;;;;2.53;1.70;;;;;;;;;;5118904;28;20204;-67
2023/10/04 09:20:29;;;;;;;1.97;1.43;;;;;;;;;;5118958;28;20221;-68
2023/10/04 09:22:59;;;;;;;3.67;2.20;;;;;;;;;;5118735;28;20261;-68
2023/10/04 09:25:35;;;;;;;3.57;2.10;;;;;;;;;;5118583;28;20205;-66
2023/10/04 09:28:04;;;;;;;6.97;2.43;;;;;;;;;;5117991;28;20292;-66
2023/10/04 09:30:34;;;;;;;3.13;2.03;;;;;;;;;;5118507;28;20262;-68
2023/10/04 09:33:04;;;;;;;2.73;1.90;;;;;;;;;;5118313;28;20254;-68
2023/10/04 09:35:43;;;;;;;6.07;1.80;;;;;;;;;;5118593;28;20208;-66
2023/10/04 09:38:15;;;;;;;4.30;1.73;;;;;;;;;;5118449;28;20232;-67
2023/10/04 09:40:50;;;;;;;4.43;2.03;;;;;;;;;;5113913;28;20305;-67
2023/10/04 09:43:18;;;;;;;4.40;1.97;;;;;;;;;;5118533;28;20208;-67
2023/10/04 09:45:56;;;;;;;5.70;2.50;;;;;;;;;;5115339;28;20211;-70
2023/10/04 09:48:31;;;;;;;6.53;2.00;;;;;;;;;;5117916;28;20223;-68
2023/10/04 09:51:00;;;;;;;5.27;2.23;;;;;;;;;;5118419;28;20260;-67
2023/10/04 09:53:28;;;;;;;6.50;1.83;;;;;;;;;;5118154;28;20282;-66
2023/10/04 09:55:59;;;;;;;3.30;2.10;;;;;;;;;;5118260;28;20607;-69
2023/10/04 09:58:29;;;;;;;2.13;1.67;;;;;;;;;;5118195;28;20203;-67
2023/10/04 10:00:59;;;;;;;3.37;1.80;;;;;;;;;;5117877;28;20227;-70
2023/10/04 10:03:30;;;;;;;4.73;1.73;;;;;;;;;;5118452;28;20208;-69
2023/10/04 10:05:59;;;;;;;4.83;1.80;;;;;;;;;;5118003;28;20636;-70
2023/10/04 10:08:31;;;;;;;4.80;2.00;;;;;;;;;;5118023;28;20263;-70
2023/10/04 10:11:00;;;;;;;4.40;1.80;;;;;;;;;;5118063;28;20772;-66
2023/10/04 10:13:29;;;;;;;2.93;1.90;;;;;;;;;;5115391;28;20694;-67
2023/10/04 10:15:58;;;;;;;5.13;1.87;;;;;;;;;;5104635;28;20228;-70
2023/10/04 10:18:26;;;;;;;9.53;2.40;;;;;;;;;;5117459;28;20778;-69
2023/10/04 10:20:58;;;;;;;3.90;1.80;;;;;;;;;;5117492;28;20229;-69
2023/10/04 10:23:26;;;;;;;4.73;1.87;;;;;;;;;;5117955;28;20204;-70
2023/10/04 10:26:12;;;;;;;3.37;1.60;;;;;;;;;;5118027;28;20207;-67
2023/10/04 10:28:40;;;;;;;6.80;2.33;;;;;;;;;;5117602;28;20231;-69
2023/10/04 10:31:18;;;;;;;8.20;4.27;;;;;;;;;;5117980;28;20237;-68
2023/10/04 10:33:47;;;;;;;3.87;1.93;;;;;;;;;;5110647;28;20234;-68
2023/10/04 10:36:24;;;;;;;3.57;1.77;;;;;;;;;;5117787;28;20200;-67
2023/10/04 10:38:54;;;;;;;3.07;1.70;;;;;;;;;;5117668;28;20200;-67
2023/10/04 10:41:42;;;;;;;3.17;1.60;;;;;;;;;;5117554;28;20767;-67
2023/10/04 10:44:19;;;;;;;6.30;2.00;;;;;;;;;;5117267;28;20239;-66
2023/10/04 10:46:54;;;;;;;4.20;1.53;;;;;;;;;;5112982;28;20213;-68
2023/10/04 10:49:41;;;;;;;2.03;1.40;;;;;;;;;;5114473;28;20241;-66
2023/10/04 10:52:11;;;;;;;3.50;1.50;;;;;;;;;;5117966;28;20205;-68
2023/10/04 10:54:39;;;;;;;3.40;1.60;;;;;;;;;;5117623;28;20243;-66
2023/10/04 10:57:08;;;;;;;4.43;1.80;;;;;;;;;;5118227;28;20226;-68
2023/10/04 10:59:36;;;;;;;4.63;1.43;;;;;;;;;;5117559;28;20235;-67
2023/10/04 11:02:05;;;;;;;2.10;1.40;;;;;;;;;;5117838;28;20237;-70
2023/10/04 11:04:34;;;;;;;2.97;1.50;;;;;;;;;;5117927;28;20267;-70
2023/10/04 11:07:02;;;;;;;3.40;1.60;;;;;;;;;;5117459;28;20244;-68
2023/10/04 11:09:37;;;;;;;5.63;2.13;;;;;;;;;;5117354;28;20210;-68
2023/10/04 11:12:13;;;;;;;2.67;1.70;;;;;;;;;;5117236;28;20210;-66
2023/10/04 11:14:42;;;;;;;2.67;1.53;;;;;;;;;;5117365;28;20642;-66
2023/10/04 11:17:10;;;;;;;4.17;1.80;;;;;;;;;;5117383;28;20678;-66
2023/10/04 11:19:38;;;;;;;2.90;1.60;;;;;;;;;;5117571;28;20292;-68
2023/10/04 11:22:08;;;;;;;3.27;1.60;;;;;;;;;;5117307;28;20293;-67
2023/10/04 11:24:39;;;;;;;3.80;1.50;;;;;;;;;;5116924;28;20239;-67
2023/10/04 11:27:07;;;;;;;3.97;1.77;;;;;;;;;;5106737;28;20201;-67
2023/10/04 11:29:35;;;;;;;2.67;1.73;;;;;;;;;;5116868;28;20741;-68
2023/10/04 11:32:05;;;;;;;2.10;1.90;;;;;;;;;;5119877;28;20232;-67
2023/10/04 11:34:36;;;;;;;4.60;1.50;;;;;;;;;;5120850;28;20257;-67
2023/10/04 11:37:05;;;;;;;1.90;1.50;;;;;;;;;;5121004;28;20235;-67
2023/10/04 11:39:34;;;;;;;3.37;1.87;;;;;;;;;;5120636;28;20208;-67
2023/10/04 11:42:04;;;;;;;3.63;1.90;;;;;;;;;;5120993;28;20226;-67
2023/10/04 11:44:33;;;;;;;2.60;1.70;;;;;;;;;;5120779;28;20212;-67
2023/10/04 11:47:03;;;;;;;2.10;1.83;;;;;;;;;;5120601;28;20747;-67
2023/10/04 11:49:33;;;;;;;2.00;1.20;;;;;;;;;;5120922;28;20225;-67
2023/10/04 11:52:03;;;;;;;4.27;2.03;;;;;;;;;;5120865;28;20299;-66
2023/10/04 11:54:37;;;;;;;3.30;1.80;;;;;;;;;;5120359;28;20254;-68
2023/10/04 11:57:07;;;;;;;3.70;1.70;;;;;;;;;;5120577;28;20214;-66
2023/10/04 11:59:35;;;;;;;2.10;1.73;;;;;;;;;;5120600;27;21943;-69
2023/10/04 12:02:03;;;;;;;4.20;1.73;;;;;;;;;;5120691;28;20225;-67
2023/10/04 12:04:31;;;;;;;4.10;1.40;;;;;;;;;;5120752;28;20219;-67
2023/10/04 12:07:02;;;;;;;3.80;1.33;;;;;;;;;;5120511;28;20295;-67
2023/10/04 12:09:33;;;;;;;3.43;1.70;;;;;;;;;;5120412;28;20225;-67
2023/10/04 12:12:03;;;;;;;1.93;1.40;;;;;;;;;;5120469;28;20237;-69
2023/10/04 12:14:33;;;;;;;4.53;2.07;;;;;;;;;;5111230;28;20200;-67
2023/10/04 12:17:03;;;;;;;1.60;1.33;;;;;;;;;;5119951;28;20285;-67
2023/10/04 12:19:32;;;;;;;1.83;1.27;;;;;;;;;;5120492;28;20203;-67
2023/10/04 12:22:02;;;;;;;2.83;1.73;;;;;;;;;;5120355;28;20280;-67
2023/10/04 12:24:30;;;;;;;6.47;1.77;;;;;;;;;;5120170;27;20204;-67
2023/10/04 12:27:00;;;;;;;3.53;1.70;;;;;;;;;;5120341;28;20212;-67
2023/10/04 12:29:29;;;;;;;2.53;1.53;;;;;;;;;;5119877;28;20231;-67
2023/10/04 12:31:58;;;;;;;2.10;1.33;;;;;;;;;;5119958;28;20229;-67
2023/10/04 12:34:27;;;;;;;2.57;1.57;;;;;;;;;;5120285;28;20208;-67
2023/10/04 12:36:55;;;;;;;5.00;1.90;;;;;;;;;;5119973;28;20261;-67
2023/10/04 12:39:26;;;;;;;2.60;1.43;;;;;;;;;;5119944;28;20235;-67
2023/10/04 12:41:55;;;;;;;4.47;1.83;;;;;;;;;;5119395;28;20233;-67
2023/10/04 12:44:24;;;;;;;2.50;1.60;;;;;;;;;;5119304;28;20215;-67
2023/10/04 12:46:52;;;;;;;4.33;1.70;;;;;;;;;;5113615;28;20204;-67
2023/10/04 12:49:23;;;;;;;7.33;2.10;;;;;;;;;;5116533;28;20237;-67
2023/10/04 12:51:52;;;;;;;4.00;1.60;;;;;;;;;;5119926;28;20275;-67
2023/10/04 12:54:23;;;;;;;3.20;1.50;;;;;;;;;;5119132;28;20239;-67
2023/10/04 12:56:53;;;;;;;4.60;1.30;;;;;;;;;;5119798;28;20722;-67
2023/10/04 12:59:23;;;;;;;4.07;1.63;;;;;;;;;;5119313;28;20284;-67
2023/10/04 13:01:52;;;;;;;3.60;1.83;;;;;;;;;;5119242;27;20768;-66
2023/10/04 13:04:22;;;;;;;4.10;1.73;;;;;;;;;;5119499;28;20210;-67
2023/10/04 13:06:50;;;;;;;6.00;1.83;;;;;;;;;;5119344;28;20206;-67
2023/10/04 13:09:19;;;;;;;2.07;1.50;;;;;;;;;;5119294;28;20232;-67
2023/10/04 13:11:48;;;;;;;5.03;1.90;;;;;;;;;;5119130;28;20742;-67
2023/10/04 13:14:16;;;;;;;7.90;2.53;;;;;;;;;;5118853;28;20581;-67
2023/10/04 13:16:45;;;;;;;3.43;1.60;;;;;;;;;;5118954;28;20680;-67
2023/10/04 13:19:14;;;;;;;1.97;1.60;;;;;;;;;;5119166;28;20265;-67
2023/10/04 13:21:44;;;;;;;6.60;1.70;;;;;;;;;;5119062;28;20226;-67
2023/10/04 13:24:14;;;;;;;8.03;1.60;;;;;;;;;;5118814;28;20217;-67
2023/10/04 13:26:45;;;;;;;3.47;1.77;;;;;;;;;;5118865;28;20203;-67
2023/10/04 13:29:14;;;;;;;3.80;1.80;;;;;;;;;;5118796;28;20248;-67
2023/10/04 13:31:42;;;;;;;2.10;1.50;;;;;;;;;;5118790;28;20748;-69
2023/10/04 13:34:11;;;;;;;2.93;1.53;;;;;;;;;;5118807;28;20576;-66
2023/10/04 13:36:39;;;;;;;3.57;1.60;;;;;;;;;;5118864;28;20268;-68
2023/10/04 13:39:10;;;;;;;1.80;1.37;;;;;;;;;;5118461;28;20288;-66
2023/10/04 13:41:39;;;;;;;2.13;1.63;;;;;;;;;;5116111;28;20217;-66
2023/10/04 13:44:08;;;;;;;2.97;1.67;;;;;;;;;;5118442;28;20206;-66
2023/10/04 13:46:36;;;;;;;2.63;1.80;;;;;;;;;;5111848;28;20227;-67
2023/10/04 13:49:05;;;;;;;2.43;1.57;;;;;;;;;;5118549;28;20234;-66
2023/10/04 13:51:34;;;;;;;2.73;1.63;;;;;;;;;;5118147;28;20697;-66
2023/10/04 13:54:02;;;;;;;2.57;1.07;;;;;;;;;;5117254;28;20726;-66
2023/10/04 13:56:31;;;;;;;2.23;1.40;;;;;;;;;;5118459;28;20292;-66
2023/10/04 13:58:59;;;;;;;2.47;1.40;;;;;;;;;;5118251;28;20254;-66
2023/10/04 14:01:28;;;;;;;3.50;1.90;;;;;;;;;;5114539;28;20312;-68
2023/10/04 14:03:58;;;;;;;4.23;1.73;;;;;;;;;;5118343;28;20212;-68
2023/10/04 14:06:26;;;;;;;4.17;1.77;;;;;;;;;;5118289;28;20200;-66
2023/10/04 14:08:54;;;;;;;2.37;1.90;;;;;;;;;;5117941;28;20211;-66
2023/10/04 14:11:22;;;;;;;4.30;1.70;;;;;;;;;;5118178;28;20704;-66
2023/10/04 14:13:51;;;;;;;3.30;1.53;;;;;;;;;;5117814;28;20663;-66
2023/10/04 14:16:19;;;;;;;3.30;1.73;;;;;;;;;;5118290;28;20210;-68
2023/10/04 14:18:48;;;;;;;3.03;1.37;;;;;;;;;;5118035;28;20207;-67
2023/10/04 14:21:16;;;;;;;3.93;1.83;;;;;;;;;;5118183;28;20227;-68
2023/10/04 14:23:45;;;;;;;3.30;2.07;;;;;;;;;;5117994;28;20296;-69
2023/10/04 14:26:13;;;;;;;3.07;1.50;;;;;;;;;;5118236;28;20213;-68
2023/10/04 14:28:40;;;;;;;3.33;2.10;;;;;;;;;;5117777;28;20232;-67
2023/10/04 14:31:11;;;;;;;3.07;1.50;;;;;;;;;;5117960;28;20264;-67
2023/10/04 14:33:40;;;;;;;3.70;1.60;;;;;;;;;;5117971;28;20695;-67
2023/10/04 14:36:08;;;;;;;2.27;1.47;;;;;;;;;;5118248;28;20209;-68
2023/10/04 14:38:36;;;;;;;2.53;1.50;;;;;;;;;;5118026;28;20291;-67
2023/10/04 14:41:04;;;;;;;4.03;1.80;;;;;;;;;;5118089;28;20279;-67
2023/10/04 14:43:32;;;;;;;2.27;1.27;;;;;;;;;;5117909;28;20205;-67
2023/10/04 14:46:03;;;;;;;1.80;1.50;;;;;;;;;;5117739;28;20683;-67
2023/10/04 14:48:33;;;;;;;2.90;1.30;;;;;;;;;;5117875;28;20288;-67
2023/10/04 14:51:01;;;;;;;1.87;1.50;;;;;;;;;;5117713;28;20244;-67
2023/10/04 14:53:40;;;;;;;3.00;1.40;;;;;;;;;;5117753;28;20241;-66
2023/10/04 14:56:08;;;;;;;2.20;1.30;;;;;;;;;;5117977;28;20201;-66
2023/10/04 14:58:36;;;;;;;3.03;1.40;;;;;;;;;;5117669;28;20201;-67